createdAt,value
2022-12-01T00:01:00.811Z,4.08
2022-12-01T00:03:29.855Z,3.97
2022-12-01T00:06:15.086Z,4.05
2022-12-01T00:09:02.723Z,4.19
2022-12-01T00:11:29.967Z,4.16
2022-12-01T00:13:57.015Z,4.33
2022-12-01T00:16:23.802Z,4.43
2022-12-01T00:18:51.827Z,4.59
2022-12-01T00:21:20.611Z,4.65
2022-12-01T00:23:48.579Z,4.47
2022-12-01T00:26:16.054Z,4.34
2022-12-01T00:28:43.182Z,4.38
2022-12-01T00:31:10.641Z,4.22
2022-12-01T00:33:37.685Z,4.25
2022-12-01T00:36:05.146Z,4.39
2022-12-01T00:38:32.287Z,4.30
2022-12-01T00:40:59.232Z,3.67
2022-12-01T00:43:25.806Z,3.21
2022-12-01T00:45:52.769Z,3.15
2022-12-01T00:48:20.893Z,3.31
2022-12-01T00:50:48.439Z,3.24
2022-12-01T00:53:15.179Z,3.16
2022-12-01T00:55:41.817Z,3.55
2022-12-01T00:58:08.758Z,3.96
2022-12-01T01:00:38.160Z,3.81
2022-12-01T01:03:06.334Z,3.47
2022-12-01T01:05:36.763Z,3.18
2022-12-01T01:08:06.724Z,3.17
2022-12-01T01:10:33.718Z,3.30
2022-12-01T01:13:00.420Z,3.60
2022-12-01T01:15:27.053Z,3.83
2022-12-01T01:17:53.734Z,3.88
2022-12-01T01:20:20.373Z,3.77
2022-12-01T01:22:47.109Z,3.98
2022-12-01T01:25:13.757Z,4.13
2022-12-01T01:27:40.486Z,3.94
2022-12-01T01:30:07.663Z,3.89
2022-12-01T01:32:34.377Z,3.94
2022-12-01T01:35:01.108Z,3.38
2022-12-01T01:37:27.845Z,3.29
2022-12-01T01:39:54.456Z,3.25
2022-12-01T01:42:21.615Z,3.38
2022-12-01T01:44:48.677Z,3.69
2022-12-01T01:47:18.184Z,3.78
2022-12-01T01:49:44.922Z,3.86
2022-12-01T01:52:11.761Z,4.15
2022-12-01T01:54:44.342Z,4.21
2022-12-01T01:57:14.254Z,4.12
2022-12-01T01:59:45.525Z,3.94
2022-12-01T02:02:12.940Z,3.99
2022-12-01T02:04:47.277Z,3.99
2022-12-01T02:07:17.184Z,3.62
2022-12-01T02:09:44.025Z,3.19
2022-12-01T02:12:16.706Z,3.16
2022-12-01T02:14:49.586Z,3.49
2022-12-01T02:17:22.575Z,3.47
2022-12-01T02:19:49.488Z,3.47
2022-12-01T02:22:44.004Z,3.18
2022-12-01T02:25:16.579Z,3.05
2022-12-01T02:28:01.859Z,3.45
2022-12-01T02:30:47.692Z,3.64
2022-12-01T02:33:21.132Z,3.93
2022-12-01T02:36:03.335Z,3.87
2022-12-01T02:38:29.972Z,3.58
2022-12-01T02:40:57.006Z,3.64
2022-12-01T02:43:29.495Z,3.79
2022-12-01T02:45:59.164Z,3.85
2022-12-01T02:48:46.317Z,3.84
2022-12-01T02:51:16.746Z,2.87
2022-12-01T02:53:43.804Z,2.61
2022-12-01T02:56:11.858Z,2.10
2022-12-01T02:58:38.600Z,1.63
2022-12-01T03:01:24.204Z,1.93
2022-12-01T03:03:51.428Z,2.21
2022-12-01T03:06:36.036Z,2.60
2022-12-01T03:09:21.239Z,2.91
2022-12-01T03:11:47.817Z,3.04
2022-12-01T03:14:21.106Z,2.96
2022-12-01T03:16:50.458Z,3.04
2022-12-01T03:19:23.203Z,3.22
2022-12-01T03:21:56.206Z,3.51
2022-12-01T03:24:26.574Z,3.58
2022-12-01T03:26:56.487Z,3.81
2022-12-01T03:29:30.104Z,4.13
2022-12-01T03:32:00.177Z,4.19
2022-12-01T03:34:45.990Z,4.25
2022-12-01T03:37:26.043Z,4.44
2022-12-01T03:40:00.297Z,4.35
2022-12-01T03:42:36.177Z,4.10
2022-12-01T03:45:06.636Z,4.08
2022-12-01T03:47:36.583Z,4.04
2022-12-01T03:50:05.469Z,3.93
2022-12-01T03:52:42.419Z,3.41
2022-12-01T03:55:14.922Z,3.22
2022-12-01T03:57:48.554Z,3.12
2022-12-01T04:00:16.355Z,2.92
2022-12-01T04:02:44.481Z,2.71
2022-12-01T04:05:11.783Z,2.62
2022-12-01T04:07:39.127Z,2.68
2022-12-01T04:10:07.205Z,2.76
2022-12-01T04:12:33.851Z,2.97
2022-12-01T04:15:02.227Z,3.12
2022-12-01T04:17:29.682Z,3.13
2022-12-01T04:19:56.622Z,2.78
2022-12-01T04:22:24.080Z,2.69
2022-12-01T04:24:51.241Z,2.91
2022-12-01T04:27:18.683Z,3.00
2022-12-01T04:29:45.882Z,3.12
2022-12-01T04:32:13.078Z,3.27
2022-12-01T04:34:40.129Z,3.13
2022-12-01T04:37:07.278Z,3.18
2022-12-01T04:39:34.196Z,3.47
2022-12-01T04:42:00.954Z,3.70
2022-12-01T04:44:32.968Z,3.83
2022-12-01T04:47:02.113Z,3.70
2022-12-01T04:49:29.463Z,3.87
2022-12-01T04:51:56.066Z,4.22
2022-12-01T04:54:23.154Z,4.44
2022-12-01T04:56:49.894Z,4.39
2022-12-01T04:59:16.936Z,4.43
2022-12-01T05:01:44.225Z,4.54
2022-12-01T05:04:12.875Z,4.40
2022-12-01T05:06:39.923Z,4.46
2022-12-01T05:09:06.861Z,4.58
2022-12-01T05:11:33.806Z,4.49
2022-12-01T05:14:00.650Z,4.41
2022-12-01T05:16:29.362Z,4.55
2022-12-01T05:19:16.552Z,4.57
2022-12-01T05:21:43.905Z,4.58
2022-12-01T05:24:11.151Z,4.16
2022-12-01T05:26:37.992Z,4.08
2022-12-01T05:29:05.243Z,3.98
2022-12-01T05:31:32.308Z,3.79
2022-12-01T05:33:59.221Z,3.55
2022-12-01T05:36:26.099Z,3.21
2022-12-01T05:38:52.622Z,3.10
2022-12-01T05:41:19.169Z,3.25
2022-12-01T05:43:45.984Z,3.26
2022-12-01T05:46:12.640Z,3.22
2022-12-01T05:48:39.258Z,3.00
2022-12-01T05:51:10.198Z,2.68
2022-12-01T05:53:36.771Z,2.55
2022-12-01T05:56:05.002Z,3.02
2022-12-01T05:58:31.827Z,3.24
2022-12-01T06:00:58.459Z,3.28
2022-12-01T06:03:25.321Z,3.09
2022-12-01T06:05:51.863Z,3.09
2022-12-01T06:08:18.393Z,3.17
2022-12-01T06:10:45.544Z,3.19
2022-12-01T06:13:12.077Z,3.11
2022-12-01T06:15:38.709Z,3.24
2022-12-01T06:18:05.268Z,3.44
2022-12-01T06:20:32.400Z,3.39
2022-12-01T06:22:59.143Z,3.63
2022-12-01T06:25:25.874Z,3.54
2022-12-01T06:27:56.709Z,3.12
2022-12-01T06:30:23.652Z,3.27
2022-12-01T06:32:50.143Z,3.46
2022-12-01T06:35:16.927Z,3.70
2022-12-01T06:37:43.971Z,3.97
2022-12-01T06:40:11.117Z,4.01
2022-12-01T06:42:37.743Z,4.12
2022-12-01T06:45:04.844Z,4.52
2022-12-01T06:47:31.640Z,4.74
2022-12-01T06:49:58.179Z,4.71
2022-12-01T06:52:24.681Z,4.67
2022-12-01T06:54:51.345Z,4.64
2022-12-01T06:57:18.595Z,4.63
2022-12-01T06:59:45.437Z,4.53
2022-12-01T07:02:12.505Z,4.36
2022-12-01T07:04:39.330Z,4.49
2022-12-01T07:07:05.933Z,5.26
2022-12-01T07:09:33.112Z,6.14
2022-12-01T07:12:00.471Z,7.07
2022-12-01T07:14:27.265Z,7.57
2022-12-01T07:16:54.247Z,7.90
2022-12-01T07:19:20.988Z,8.63
2022-12-01T07:21:47.874Z,9.08
2022-12-01T07:24:14.736Z,8.92
2022-12-01T07:26:41.609Z,8.78
2022-12-01T07:29:09.201Z,8.57
2022-12-01T07:31:37.040Z,8.64
2022-12-01T07:34:04.189Z,9.02
2022-12-01T07:36:30.722Z,8.84
2022-12-01T07:38:57.466Z,8.36
2022-12-01T07:41:24.200Z,8.16
2022-12-01T07:43:50.715Z,8.13
2022-12-01T07:46:23.135Z,8.13
2022-12-01T07:48:51.069Z,8.10
2022-12-01T07:51:18.343Z,8.02
2022-12-01T07:53:46.116Z,7.88
2022-12-01T07:56:12.786Z,7.81
2022-12-01T07:58:39.269Z,7.72
2022-12-01T08:01:07.413Z,7.79
2022-12-01T08:03:34.695Z,7.78
2022-12-01T08:06:02.396Z,7.66
2022-12-01T08:08:30.465Z,7.05
2022-12-01T08:10:59.979Z,6.46
2022-12-01T08:13:27.070Z,6.14
2022-12-01T08:15:53.636Z,6.50
2022-12-01T08:18:20.329Z,6.65
2022-12-01T08:20:46.885Z,6.30
2022-12-01T08:23:13.680Z,6.56
2022-12-01T08:25:40.254Z,6.50
2022-12-01T08:28:06.893Z,6.26
2022-12-01T08:30:33.406Z,6.08
2022-12-01T08:32:59.930Z,6.54
2022-12-01T08:35:26.698Z,6.87
2022-12-01T08:37:53.833Z,6.89
2022-12-01T08:40:21.308Z,6.96
2022-12-01T08:42:47.836Z,6.89
2022-12-01T08:45:14.359Z,7.18
2022-12-01T08:47:40.905Z,7.60
2022-12-01T08:50:10.550Z,7.92
2022-12-01T08:52:37.223Z,8.13
2022-12-01T08:55:04.502Z,8.24
2022-12-01T08:57:31.550Z,8.30
2022-12-01T08:59:58.088Z,8.40
2022-12-01T09:02:24.975Z,8.58
2022-12-01T09:04:51.668Z,8.81
2022-12-01T09:07:24.475Z,9.10
2022-12-01T09:09:53.020Z,9.32
2022-12-01T09:12:19.546Z,9.47
2022-12-01T09:14:49.142Z,9.47
2022-12-01T09:17:16.700Z,9.49
2022-12-01T09:19:44.093Z,9.48
2022-12-01T09:22:11.158Z,9.52
2022-12-01T09:24:37.935Z,9.53
2022-12-01T09:27:05.121Z,9.48
2022-12-01T09:29:32.161Z,9.55
2022-12-01T09:31:59.627Z,9.67
2022-12-01T09:34:26.654Z,9.75
2022-12-01T09:36:57.744Z,9.83
2022-12-01T09:39:25.786Z,9.91
2022-12-01T09:42:06.140Z,9.98
2022-12-01T09:44:40.651Z,9.99
2022-12-01T09:47:13.421Z,10.09
2022-12-01T09:49:43.887Z,10.27
2022-12-01T09:52:12.193Z,10.43
2022-12-01T09:54:39.056Z,10.53
2022-12-01T09:57:05.623Z,10.52
2022-12-01T09:59:35.125Z,10.54
2022-12-01T10:02:03.729Z,10.55
2022-12-01T10:04:39.312Z,10.64
2022-12-01T10:07:17.204Z,10.68
2022-12-01T10:09:49.719Z,10.72
2022-12-01T10:12:18.107Z,10.89
2022-12-01T10:14:46.500Z,11.05
2022-12-01T10:17:21.007Z,11.10
2022-12-01T10:19:50.533Z,11.14
2022-12-01T10:22:30.709Z,11.25
2022-12-01T10:25:03.713Z,11.20
2022-12-01T10:27:47.450Z,11.05
2022-12-01T10:30:16.394Z,10.88
2022-12-01T10:32:53.671Z,10.80
2022-12-01T10:35:22.251Z,10.70
2022-12-01T10:37:53.086Z,10.69
2022-12-01T10:40:19.917Z,10.49
2022-12-01T10:42:48.015Z,10.32
2022-12-01T10:45:17.679Z,10.35
2022-12-01T10:48:03.187Z,10.33
2022-12-01T10:50:29.697Z,10.33
2022-12-01T10:52:56.257Z,10.20
2022-12-01T10:55:22.788Z,10.21
2022-12-01T10:57:50.407Z,10.28
2022-12-01T11:00:51.390Z,10.36
2022-12-01T11:03:21.795Z,10.29
2022-12-01T11:05:53.473Z,10.33
2022-12-01T11:08:31.782Z,10.29
2022-12-01T11:10:58.571Z,10.06
2022-12-01T11:13:30.587Z,10.06
2022-12-01T11:15:58.677Z,9.94
2022-12-01T11:18:51.987Z,9.82
2022-12-01T11:21:25.925Z,9.83
2022-12-01T11:23:53.311Z,9.87
2022-12-01T11:26:27.655Z,10.01
2022-12-01T11:28:56.794Z,10.09
2022-12-01T11:31:37.294Z,10.11
2022-12-01T11:34:04.051Z,10.09
2022-12-01T11:36:35.242Z,10.03
2022-12-01T11:39:02.199Z,9.98
2022-12-01T11:41:36.218Z,9.99
2022-12-01T11:44:12.684Z,9.98
2022-12-01T11:49:45.497Z,10.00
2022-12-01T11:52:27.868Z,10.05
2022-12-01T11:54:56.103Z,9.98
2022-12-01T11:57:37.660Z,9.82
2022-12-01T12:00:21.331Z,9.79
2022-12-01T12:03:06.787Z,9.85
2022-12-01T12:05:45.667Z,9.99
2022-12-01T12:08:21.342Z,10.12
2022-12-01T12:11:08.061Z,10.13
2022-12-01T12:13:53.839Z,10.17
2022-12-01T12:16:33.667Z,10.14
2022-12-01T12:19:34.073Z,10.09
2022-12-01T12:22:29.368Z,10.10
2022-12-01T12:25:20.251Z,10.27
2022-12-01T12:27:53.060Z,10.42
2022-12-01T12:30:21.457Z,10.53
2022-12-01T12:32:47.971Z,10.51
2022-12-01T12:35:17.801Z,10.39
2022-12-01T12:37:58.934Z,10.49
2022-12-01T12:40:44.316Z,10.66
2022-12-01T12:43:10.908Z,10.77
2022-12-01T12:45:43.567Z,10.84
2022-12-01T12:48:16.265Z,11.03
2022-12-01T12:50:42.712Z,11.13
2022-12-01T12:53:13.492Z,11.05
2022-12-01T12:55:42.710Z,10.84
2022-12-01T12:58:13.141Z,10.64
2022-12-01T13:00:42.584Z,10.55
2022-12-01T13:03:19.279Z,10.35
2022-12-01T13:06:05.310Z,10.26
2022-12-01T13:08:45.774Z,10.12
2022-12-01T13:11:18.106Z,9.99
2022-12-01T13:13:47.734Z,9.71
2022-12-01T13:16:16.811Z,9.57
2022-12-01T13:18:54.565Z,9.47
2022-12-01T13:21:23.304Z,9.21
2022-12-01T13:23:51.928Z,8.94
2022-12-01T13:26:21.835Z,8.82
2022-12-01T13:28:48.395Z,8.75
2022-12-01T13:31:15.916Z,8.74
2022-12-01T13:33:52.728Z,8.60
2022-12-01T13:39:16.268Z,8.48
2022-12-01T13:41:43.782Z,8.54
2022-12-01T13:44:22.692Z,8.43
2022-12-01T13:46:51.190Z,8.33
2022-12-01T13:49:38.979Z,8.25
2022-12-01T13:52:21.009Z,8.18
2022-12-01T13:55:01.819Z,8.18
2022-12-01T13:57:29.987Z,8.17
2022-12-01T13:59:59.407Z,8.08
2022-12-01T14:02:29.623Z,7.99
2022-12-01T14:05:15.003Z,7.88
2022-12-01T14:07:42.821Z,7.78
2022-12-01T14:10:17.068Z,7.77
2022-12-01T14:12:45.356Z,7.71
2022-12-01T14:15:24.102Z,7.65
2022-12-01T14:18:02.872Z,7.76
2022-12-01T14:20:31.383Z,7.82
2022-12-01T14:23:13.181Z,7.78
2022-12-01T14:25:40.347Z,7.76
2022-12-01T14:28:16.146Z,7.72
2022-12-01T14:30:45.478Z,7.55
2022-12-01T14:33:32.193Z,7.47
2022-12-01T14:35:58.968Z,7.32
2022-12-01T14:38:27.363Z,7.23
2022-12-01T14:40:54.547Z,7.07
2022-12-01T14:43:40.052Z,7.13
2022-12-01T14:46:08.095Z,7.21
2022-12-01T14:48:40.453Z,7.26
2022-12-01T14:51:31.210Z,7.27
2022-12-01T14:54:00.446Z,7.33
2022-12-01T14:56:27.890Z,7.29
2022-12-01T14:58:59.256Z,7.28
2022-12-01T15:01:33.361Z,7.26
2022-12-01T15:04:02.435Z,7.17
2022-12-01T15:06:30.306Z,7.08
2022-12-01T15:09:38.503Z,7.04
2022-12-01T15:12:08.163Z,6.94
2022-12-01T15:14:36.568Z,6.81
2022-12-01T15:17:04.791Z,6.79
2022-12-01T15:19:36.784Z,6.83
2022-12-01T15:22:23.552Z,6.88
2022-12-01T15:24:50.624Z,6.90
2022-12-01T15:27:23.866Z,6.90
2022-12-01T15:29:51.225Z,6.90
2022-12-01T15:32:19.359Z,6.95
2022-12-01T15:34:47.424Z,7.06
2022-12-01T15:37:19.173Z,7.07
2022-12-01T15:39:47.959Z,6.92
2022-12-01T15:42:34.287Z,6.71
2022-12-01T15:45:02.984Z,6.59
2022-12-01T15:47:32.042Z,6.57
2022-12-01T15:49:58.531Z,6.66
2022-12-01T15:52:25.108Z,6.68
2022-12-01T15:54:52.126Z,6.79
2022-12-01T15:57:19.979Z,6.89
2022-12-01T15:59:51.613Z,6.98
2022-12-01T16:02:18.128Z,7.09
2022-12-01T16:04:45.660Z,7.15
2022-12-01T16:07:13.167Z,7.24
2022-12-01T16:09:41.188Z,7.32
2022-12-01T16:12:13.797Z,7.39
2022-12-01T16:14:49.944Z,7.42
2022-12-01T16:17:16.766Z,7.44
2022-12-01T16:19:44.939Z,7.50
2022-12-01T16:22:11.634Z,7.50
2022-12-01T16:24:49.034Z,7.59
2022-12-01T16:27:18.773Z,7.63
2022-12-01T16:29:53.255Z,7.69
2022-12-01T16:32:35.396Z,7.71
2022-12-01T16:35:03.834Z,7.72
2022-12-01T16:37:30.766Z,7.86
2022-12-01T16:39:57.903Z,8.00
2022-12-01T16:42:24.598Z,8.01
2022-12-01T16:44:51.420Z,8.00
2022-12-01T16:47:19.751Z,8.04
2022-12-01T16:49:46.959Z,8.07
2022-12-01T16:52:43.025Z,8.12
2022-12-01T16:55:00.293Z,8.17
2022-12-01T16:57:26.850Z,8.23
2022-12-01T16:59:53.395Z,8.35
2022-12-01T17:02:19.979Z,8.33
2022-12-01T17:04:47.131Z,8.32
2022-12-01T17:07:13.887Z,8.34
2022-12-01T17:09:40.392Z,8.17
2022-12-01T17:12:07.214Z,8.09
2022-12-01T17:14:35.460Z,8.18
2022-12-01T17:17:03.839Z,8.17
2022-12-01T17:19:30.378Z,8.14
2022-12-01T17:21:56.878Z,8.17
2022-12-01T17:24:25.392Z,8.15
2022-12-01T17:26:51.993Z,8.18
2022-12-01T17:29:18.886Z,8.30
2022-12-01T17:31:45.501Z,8.41
2022-12-01T17:34:11.973Z,8.40
2022-12-01T17:36:38.704Z,8.45
2022-12-01T17:39:05.614Z,8.52
2022-12-01T17:41:35.039Z,8.63
2022-12-01T17:44:02.881Z,8.57
2022-12-01T17:46:30.106Z,8.61
2022-12-01T17:48:58.003Z,8.76
2022-12-01T17:51:24.655Z,8.85
2022-12-01T17:53:52.231Z,8.79
2022-12-01T17:56:18.933Z,8.72
2022-12-01T17:58:45.511Z,8.64
2022-12-01T18:01:15.981Z,8.39
2022-12-01T18:03:43.104Z,8.34
2022-12-01T18:06:11.725Z,8.45
2022-12-01T18:08:39.187Z,8.41
2022-12-01T18:11:07.213Z,8.36
2022-12-01T18:13:39.772Z,8.38
2022-12-01T18:16:10.331Z,8.43
2022-12-01T18:18:37.665Z,8.45
2022-12-01T18:21:05.819Z,8.46
2022-12-01T18:23:32.499Z,8.43
2022-12-01T18:26:04.432Z,8.28
2022-12-01T18:28:31.893Z,8.25
2022-12-01T18:31:08.635Z,8.17
2022-12-01T18:33:36.357Z,8.25
2022-12-01T18:36:03.889Z,8.43
2022-12-01T18:38:30.674Z,8.43
2022-12-01T18:40:58.947Z,8.49
2022-12-01T18:43:26.160Z,8.58
2022-12-01T18:45:52.776Z,8.61
2022-12-01T18:48:19.334Z,8.54
2022-12-01T18:50:45.824Z,8.47
2022-12-01T18:53:12.693Z,8.45
2022-12-01T18:55:39.689Z,8.38
2022-12-01T18:58:06.379Z,8.40
2022-12-01T19:00:33.363Z,8.41
2022-12-01T19:03:00.070Z,8.37
2022-12-01T19:05:27.083Z,8.18
2022-12-01T19:07:53.671Z,8.15
2022-12-01T19:10:20.584Z,8.13
2022-12-01T19:12:47.271Z,8.00
2022-12-01T19:15:14.215Z,7.80
2022-12-01T19:17:40.798Z,7.63
2022-12-01T19:20:08.412Z,7.34
2022-12-01T19:22:35.265Z,7.30
2022-12-01T19:25:02.198Z,7.31
2022-12-01T19:27:29.782Z,7.40
2022-12-01T19:29:56.328Z,7.52
2022-12-01T19:32:23.151Z,7.66
2022-12-01T19:34:50.102Z,7.70
2022-12-01T19:37:17.089Z,7.64
2022-12-01T19:39:43.740Z,7.70
2022-12-01T19:42:10.495Z,7.83
2022-12-01T19:44:37.190Z,8.01
2022-12-01T19:47:07.289Z,7.99
2022-12-01T19:49:34.195Z,7.86
2022-12-01T19:52:00.687Z,7.78
2022-12-01T19:54:28.245Z,7.89
2022-12-01T19:56:54.924Z,7.90
2022-12-01T19:59:21.561Z,7.91
2022-12-01T20:01:48.188Z,7.98
2022-12-01T20:04:15.040Z,7.97
2022-12-01T20:06:41.505Z,7.87
2022-12-01T20:09:08.198Z,7.71
2022-12-01T20:11:35.263Z,7.66
2022-12-01T20:14:03.451Z,7.68
2022-12-01T20:16:30.355Z,7.71
2022-12-01T20:18:59.778Z,7.73
2022-12-01T20:21:28.223Z,7.85
2022-12-01T20:23:57.503Z,7.83
2022-12-01T20:26:30.075Z,7.75
2022-12-01T20:28:59.871Z,7.64
2022-12-01T20:31:27.670Z,7.61
2022-12-01T20:33:55.545Z,7.59
2022-12-01T20:36:22.097Z,7.56
2022-12-01T20:38:48.757Z,7.57
2022-12-01T20:41:15.736Z,7.60
2022-12-01T20:43:42.533Z,7.59
2022-12-01T20:46:10.852Z,7.50
2022-12-01T20:48:37.626Z,7.40
2022-12-01T20:51:05.138Z,7.37
2022-12-01T20:53:31.690Z,7.35
2022-12-01T20:56:01.683Z,7.36
2022-12-01T20:58:31.028Z,7.35
2022-12-01T21:01:00.551Z,7.36
2022-12-01T21:03:27.434Z,7.44
2022-12-01T21:05:53.933Z,7.43
2022-12-01T21:08:20.674Z,7.48
2022-12-01T21:10:47.330Z,7.41
2022-12-01T21:13:34.803Z,7.30
2022-12-01T21:16:07.028Z,7.23
2022-12-01T21:18:44.188Z,7.27
2022-12-01T21:21:26.929Z,7.36
2022-12-01T21:24:13.458Z,7.39
2022-12-01T21:26:41.610Z,7.47
2022-12-01T21:29:14.038Z,7.62
2022-12-01T21:31:40.953Z,7.67
2022-12-01T21:34:13.471Z,7.62
2022-12-01T21:36:40.004Z,7.49
2022-12-01T21:39:18.212Z,7.42
2022-12-01T21:41:45.154Z,7.46
2022-12-01T21:44:14.106Z,7.49
2022-12-01T21:46:41.865Z,7.48
2022-12-01T21:49:10.461Z,7.49
2022-12-01T21:51:37.179Z,7.50
2022-12-01T21:54:06.255Z,7.53
2022-12-01T21:56:32.855Z,7.51
2022-12-01T21:59:06.022Z,7.53
2022-12-01T22:01:33.799Z,7.45
2022-12-01T22:04:02.992Z,7.41
2022-12-01T22:06:39.780Z,7.41
2022-12-01T22:09:26.396Z,7.47
2022-12-01T22:11:56.659Z,7.33
2022-12-01T22:14:27.245Z,7.33
2022-12-01T22:17:05.956Z,7.33
2022-12-01T22:19:33.950Z,7.23
2022-12-01T22:22:14.931Z,7.22
2022-12-01T22:24:52.487Z,7.23
2022-12-01T22:27:26.228Z,7.31
2022-12-01T22:30:02.045Z,7.31
2022-12-01T22:32:31.548Z,7.40
2022-12-01T22:35:05.928Z,7.42
2022-12-01T22:37:32.613Z,7.46
2022-12-01T22:39:59.245Z,7.60
2022-12-01T22:42:32.596Z,7.74
2022-12-01T22:45:02.245Z,7.73
2022-12-01T22:47:31.095Z,7.84
2022-12-01T22:49:57.744Z,7.93
2022-12-01T22:52:29.743Z,7.99
2022-12-01T22:54:56.347Z,8.05
2022-12-01T22:57:32.357Z,8.10
2022-12-01T23:00:13.471Z,8.10
2022-12-01T23:02:40.440Z,8.02
2022-12-01T23:05:13.009Z,7.98
2022-12-01T23:07:40.935Z,8.01
2022-12-01T23:10:10.893Z,8.02
2022-12-01T23:12:38.055Z,7.99
2022-12-01T23:15:23.684Z,7.91
2022-12-01T23:17:50.843Z,7.88
2022-12-01T23:20:33.709Z,7.86
2022-12-01T23:23:02.076Z,7.71
2022-12-01T23:25:29.226Z,7.71
2022-12-01T23:27:58.694Z,7.71
2022-12-01T23:30:25.775Z,7.74
2022-12-01T23:33:10.844Z,7.86
2022-12-01T23:35:48.052Z,7.85
2022-12-01T23:38:15.995Z,7.82
2022-12-01T23:40:42.506Z,7.90
2022-12-01T23:43:15.472Z,7.98
2022-12-01T23:45:42.361Z,8.05
2022-12-01T23:48:30.667Z,8.20
2022-12-01T23:50:57.394Z,8.33
2022-12-01T23:53:28.469Z,8.36
2022-12-01T23:55:56.146Z,8.29
2022-12-01T23:58:22.693Z,8.11
